createdAt,value
2022-10-19T00:01:16.743Z,101044.63
2022-10-19T00:03:46.682Z,101002.34
2022-10-19T00:06:26.260Z,101032.50
2022-10-19T00:08:58.540Z,101017.00
2022-10-19T00:11:26.883Z,101038.59
2022-10-19T00:13:55.493Z,101024.78
2022-10-19T00:16:23.739Z,101013.56
2022-10-19T00:18:50.909Z,101042.91
2022-10-19T00:21:19.872Z,101035.97
2022-10-19T00:23:47.445Z,101039.47
2022-10-19T00:26:14.774Z,101041.19
2022-10-19T00:28:42.753Z,101039.47
2022-10-19T00:31:15.187Z,101036.88
2022-10-19T00:33:43.863Z,101014.44
2022-10-19T00:36:20.323Z,101027.38
2022-10-19T00:38:48.316Z,101022.22
2022-10-19T00:41:17.319Z,101023.94
2022-10-19T00:43:57.972Z,101027.41
2022-10-19T00:46:26.626Z,101029.13
2022-10-19T00:49:01.064Z,101010.16
2022-10-19T00:51:30.585Z,101023.94
2022-10-19T00:53:58.196Z,101012.75
2022-10-19T00:56:25.443Z,101025.69
2022-10-19T00:58:52.920Z,101030.84
2022-10-19T01:01:24.076Z,100980.78
2022-10-19T01:03:51.441Z,100998.91
2022-10-19T01:06:20.073Z,101020.50
2022-10-19T01:08:47.548Z,101022.22
2022-10-19T01:11:29.733Z,101020.50
2022-10-19T01:14:38.894Z,101011.88
2022-10-19T01:17:12.035Z,101023.97
2022-10-19T01:19:57.702Z,101011.84
2022-10-19T01:22:37.064Z,101017.91
2022-10-19T01:25:24.853Z,101011.00
2022-10-19T01:28:15.430Z,101017.03
2022-10-19T01:31:14.636Z,101013.63
2022-10-19T01:34:02.316Z,101015.34
2022-10-19T01:36:48.160Z,101011.88
2022-10-19T01:39:23.603Z,101010.16
2022-10-19T01:42:08.149Z,101008.44
2022-10-19T01:44:50.633Z,101017.06
2022-10-19T01:47:25.195Z,101010.13
2022-10-19T01:50:29.224Z,101003.22
2022-10-19T01:52:58.086Z,101005.00
2022-10-19T01:55:27.242Z,100979.06
2022-10-19T01:58:00.744Z,100997.19
2022-10-19T02:00:29.814Z,100998.91
2022-10-19T02:02:58.814Z,100948.88
2022-10-19T02:05:31.646Z,100977.34
2022-10-19T02:08:03.307Z,100974.75
2022-10-19T02:10:33.966Z,100994.63
2022-10-19T02:13:03.592Z,100979.88
2022-10-19T02:15:35.442Z,100976.47
2022-10-19T02:18:04.132Z,100976.47
2022-10-19T02:20:31.783Z,100938.53
2022-10-19T02:22:59.155Z,100929.88
2022-10-19T02:25:27.135Z,100980.78
2022-10-19T02:27:54.625Z,100986.81
2022-10-19T02:30:22.693Z,100982.47
2022-10-19T02:32:50.601Z,100990.25
2022-10-19T02:35:18.195Z,100975.59
2022-10-19T02:37:45.953Z,100982.50
2022-10-19T02:40:13.487Z,100979.91
2022-10-19T02:42:43.617Z,100984.22
2022-10-19T02:45:18.005Z,100991.13
2022-10-19T02:48:02.595Z,100987.69
2022-10-19T02:50:29.923Z,100979.06
2022-10-19T02:52:59.693Z,100980.78
2022-10-19T02:55:27.031Z,100948.00
2022-10-19T02:57:55.090Z,100966.97
2022-10-19T03:00:22.380Z,100974.72
2022-10-19T03:02:49.627Z,100929.03
2022-10-19T03:05:16.873Z,100978.19
2022-10-19T03:07:44.027Z,100973.84
2022-10-19T03:10:11.248Z,100931.59
2022-10-19T03:12:38.507Z,100985.97
2022-10-19T03:15:06.573Z,100875.59
2022-10-19T03:17:34.150Z,100980.78
2022-10-19T03:20:01.422Z,100979.91
2022-10-19T03:22:28.664Z,100974.75
2022-10-19T03:24:56.019Z,100961.81
2022-10-19T03:27:23.100Z,100960.94
2022-10-19T03:29:50.268Z,100944.59
2022-10-19T03:32:17.440Z,100964.41
2022-10-19T03:34:44.486Z,100932.50
2022-10-19T03:37:13.747Z,100973.91
2022-10-19T03:39:41.272Z,100954.91
2022-10-19T03:42:08.369Z,100960.94
2022-10-19T03:44:35.633Z,100944.56
2022-10-19T03:47:02.787Z,100929.88
2022-10-19T03:49:29.933Z,100946.28
2022-10-19T03:51:58.104Z,100951.44
2022-10-19T03:54:27.409Z,100885.94
2022-10-19T03:56:54.904Z,100941.13
2022-10-19T03:59:23.443Z,100941.13
2022-10-19T04:01:50.723Z,100948.00
2022-10-19T04:04:19.603Z,100936.78
2022-10-19T04:06:49.156Z,100943.69
2022-10-19T04:09:19.294Z,100925.56
2022-10-19T04:11:46.836Z,100932.47
2022-10-19T04:14:22.876Z,100933.31
2022-10-19T04:17:01.729Z,100941.97
2022-10-19T04:19:28.996Z,100941.09
2022-10-19T04:21:56.386Z,100949.75
2022-10-19T04:24:23.917Z,100958.34
2022-10-19T04:26:53.496Z,100951.47
2022-10-19T04:29:23.802Z,100975.66
2022-10-19T04:31:53.935Z,100948.06
2022-10-19T04:34:21.273Z,100980.84
2022-10-19T04:36:48.357Z,100956.66
2022-10-19T04:39:16.604Z,100973.91
2022-10-19T04:41:43.744Z,100973.91
2022-10-19T04:44:11.055Z,100961.88
2022-10-19T04:46:38.870Z,100975.66
2022-10-19T04:49:07.385Z,100967.88
2022-10-19T04:51:35.134Z,100972.19
2022-10-19T04:54:04.084Z,100963.56
2022-10-19T04:56:32.733Z,100951.50
2022-10-19T04:59:01.268Z,100983.44
2022-10-19T05:01:31.128Z,100929.94
2022-10-19T05:04:00.912Z,100977.38
2022-10-19T05:06:29.136Z,100985.16
2022-10-19T05:08:56.688Z,100979.09
2022-10-19T05:11:24.215Z,100903.22
2022-10-19T05:13:52.110Z,100974.81
2022-10-19T05:16:22.207Z,100973.94
2022-10-19T05:18:50.963Z,100960.13
2022-10-19T05:21:19.394Z,100952.34
2022-10-19T05:23:46.447Z,100977.41
2022-10-19T05:26:18.298Z,100915.25
2022-10-19T05:28:50.385Z,100960.97
2022-10-19T05:31:20.020Z,100868.72
2022-10-19T05:33:47.696Z,100974.81
2022-10-19T05:36:22.434Z,100980.00
2022-10-19T05:38:50.843Z,100986.03
2022-10-19T05:41:18.083Z,100981.69
2022-10-19T05:43:46.163Z,100986.03
2022-10-19T05:46:18.172Z,100986.03
2022-10-19T05:48:46.586Z,100981.69
2022-10-19T05:51:16.856Z,100937.72
2022-10-19T05:53:44.933Z,100994.69
2022-10-19T05:56:19.057Z,100958.44
2022-10-19T05:58:46.520Z,100974.81
2022-10-19T06:01:14.493Z,100887.69
2022-10-19T06:03:42.388Z,100993.81
2022-10-19T06:06:10.168Z,100946.38
2022-10-19T06:08:39.149Z,100999.84
2022-10-19T06:11:18.943Z,100995.56
2022-10-19T06:13:47.938Z,101008.50
2022-10-19T06:16:16.457Z,100979.16
2022-10-19T06:18:44.290Z,100970.53
2022-10-19T06:21:17.893Z,101022.31
2022-10-19T06:23:46.131Z,101011.97
2022-10-19T06:26:14.851Z,101008.50
2022-10-19T06:28:44.259Z,101010.22
2022-10-19T06:31:13.735Z,101018.88
2022-10-19T06:33:43.927Z,101005.06
2022-10-19T06:36:14.852Z,100990.38
2022-10-19T06:38:42.626Z,100929.09
2022-10-19T06:41:11.295Z,101020.59
2022-10-19T06:43:38.982Z,101029.22
2022-10-19T06:46:12.212Z,101024.06
2022-10-19T06:48:39.466Z,101030.94
2022-10-19T06:51:07.961Z,101024.91
2022-10-19T06:53:36.325Z,101029.22
2022-10-19T06:56:06.333Z,101005.91
2022-10-19T06:58:38.053Z,100987.78
2022-10-19T07:01:10.610Z,101033.53
2022-10-19T07:03:38.159Z,101032.66
2022-10-19T07:06:10.407Z,101019.72
2022-10-19T07:08:39.275Z,101030.06
2022-10-19T07:11:09.453Z,101030.09
2022-10-19T07:13:37.035Z,101024.03
2022-10-19T07:16:16.147Z,101044.78
2022-10-19T07:18:47.469Z,101048.19
2022-10-19T07:21:16.667Z,101049.94
2022-10-19T07:23:45.657Z,101043.03
2022-10-19T07:26:26.801Z,101053.41
2022-10-19T07:28:57.066Z,101057.72
2022-10-19T07:31:25.623Z,101037.84
2022-10-19T07:34:01.532Z,101049.94
2022-10-19T07:36:30.799Z,101055.13
2022-10-19T07:38:58.173Z,101048.19
2022-10-19T07:41:26.442Z,101058.59
2022-10-19T07:43:54.807Z,101063.75
2022-10-19T07:46:25.726Z,101072.38
2022-10-19T07:48:53.851Z,101073.25
2022-10-19T07:51:21.815Z,101075.84
2022-10-19T07:53:49.026Z,101074.09
2022-10-19T07:56:21.358Z,101077.53
2022-10-19T07:58:50.817Z,101074.97
2022-10-19T08:01:41.639Z,101065.47
2022-10-19T08:06:56.129Z,101087.09
2022-10-19T08:09:50.987Z,101039.56
2022-10-19T08:12:14.788Z,101088.78
2022-10-19T08:14:42.425Z,101090.53
2022-10-19T08:17:12.304Z,101051.66
2022-10-19T08:19:43.692Z,101086.19
2022-10-19T08:22:11.608Z,101082.72
2022-10-19T08:24:39.075Z,101086.19
2022-10-19T08:27:06.367Z,101090.50
2022-10-19T08:29:33.590Z,101082.75
2022-10-19T08:32:00.703Z,101086.19
2022-10-19T08:34:28.095Z,101094.84
2022-10-19T08:36:55.395Z,101067.22
2022-10-19T08:39:22.622Z,101106.94
2022-10-19T08:42:02.356Z,101115.56
2022-10-19T08:44:51.359Z,101106.94
2022-10-19T08:48:09.003Z,101115.59
2022-10-19T08:50:39.983Z,101112.13
2022-10-19T08:53:31.982Z,101116.44
2022-10-19T08:56:22.151Z,101112.06
2022-10-19T08:59:18.389Z,101118.94
2022-10-19T09:01:59.279Z,101098.16
2022-10-19T09:04:35.264Z,101114.50
2022-10-19T09:07:23.074Z,101108.41
2022-10-19T09:09:58.083Z,101113.53
2022-10-19T09:12:55.028Z,101127.28
2022-10-19T09:15:46.903Z,101123.84
2022-10-19T09:18:28.637Z,101127.41
2022-10-19T09:21:04.959Z,101113.63
2022-10-19T09:23:45.582Z,101140.44
2022-10-19T09:26:18.252Z,101132.66
2022-10-19T09:28:52.267Z,101136.13
2022-10-19T09:31:31.823Z,101132.69
2022-10-19T09:34:08.986Z,101137.88
2022-10-19T09:36:56.973Z,101146.47
2022-10-19T09:39:29.303Z,101143.91
2022-10-19T09:42:08.286Z,101153.41
2022-10-19T09:44:36.545Z,101103.38
2022-10-19T09:47:27.183Z,101141.34
2022-10-19T09:50:09.392Z,101155.16
2022-10-19T09:52:39.773Z,101118.91
2022-10-19T09:55:16.122Z,101162.91
2022-10-19T09:57:52.063Z,101158.53
2022-10-19T10:00:26.463Z,101175.75
2022-10-19T10:02:55.845Z,101172.34
2022-10-19T10:05:35.313Z,101168.94
2022-10-19T10:08:03.036Z,101172.31
2022-10-19T10:10:37.567Z,101178.34
2022-10-19T10:13:06.450Z,101132.63
2022-10-19T10:15:55.291Z,101175.84
2022-10-19T10:18:25.106Z,101187.97
2022-10-19T10:21:00.552Z,101189.69
2022-10-19T10:23:36.537Z,101187.97
2022-10-19T10:26:05.258Z,101187.06
2022-10-19T10:28:32.981Z,101189.66
2022-10-19T10:31:11.068Z,101206.09
2022-10-19T10:33:46.271Z,101208.72
2022-10-19T10:36:15.120Z,101201.84
2022-10-19T10:38:47.763Z,101205.31
2022-10-19T10:41:18.244Z,101197.41
2022-10-19T10:44:05.023Z,101168.00
2022-10-19T10:46:41.519Z,101194.78
2022-10-19T10:49:21.162Z,101192.13
2022-10-19T10:51:54.534Z,101201.59
2022-10-19T10:54:31.523Z,101192.88
2022-10-19T10:57:20.144Z,101203.22
2022-10-19T10:59:47.528Z,101206.69
2022-10-19T11:02:46.871Z,101204.97
2022-10-19T11:05:20.403Z,101206.72
2022-10-19T11:07:53.497Z,101196.34
2022-10-19T11:10:32.218Z,101213.63
2022-10-19T11:13:15.490Z,101179.09
2022-10-19T11:16:06.352Z,101203.22
2022-10-19T11:19:16.142Z,101190.34
2022-10-19T11:21:56.610Z,101150.63
2022-10-19T11:24:47.930Z,101211.84
2022-10-19T11:27:53.323Z,101210.09
2022-10-19T11:30:23.488Z,101214.47
2022-10-19T11:33:00.400Z,101205.03
2022-10-19T11:35:33.097Z,101210.31
2022-10-19T11:38:31.418Z,101206.00
2022-10-19T11:41:19.135Z,101222.44
2022-10-19T11:44:11.197Z,101205.16
2022-10-19T11:47:17.551Z,101212.06
2022-10-19T11:52:48.957Z,101210.28
2022-10-19T11:55:37.087Z,101208.56
2022-10-19T11:58:21.499Z,101205.09
2022-10-19T12:01:09.924Z,101199.91
2022-10-19T12:04:00.157Z,101211.09
2022-10-19T12:07:04.965Z,101209.38
2022-10-19T12:09:43.648Z,101208.50
2022-10-19T12:12:33.034Z,101208.47
2022-10-19T12:15:12.941Z,101215.38
2022-10-19T12:17:44.572Z,101168.72
2022-10-19T12:20:19.955Z,101209.19
2022-10-19T12:22:49.613Z,101194.47
2022-10-19T12:25:18.570Z,101206.56
2022-10-19T12:27:49.540Z,101222.22
2022-10-19T12:30:22.632Z,101181.72
2022-10-19T12:33:09.632Z,101199.06
2022-10-19T12:36:08.046Z,101215.53
2022-10-19T12:39:01.183Z,101211.25
2022-10-19T12:41:44.655Z,101216.53
2022-10-19T12:44:35.877Z,101219.16
2022-10-19T12:47:18.294Z,101209.63
2022-10-19T12:49:53.683Z,101215.66
2022-10-19T12:52:41.691Z,101222.53
2022-10-19T12:55:18.223Z,101222.50
2022-10-19T12:57:56.909Z,101224.19
2022-10-19T13:00:32.472Z,101221.59
2022-10-19T13:03:24.967Z,101231.13
2022-10-19T13:05:59.719Z,101233.72
2022-10-19T13:08:33.365Z,101238.91
2022-10-19T13:11:09.089Z,101232.91
2022-10-19T13:13:57.504Z,101243.25
2022-10-19T13:16:31.232Z,101240.66
2022-10-19T13:19:15.367Z,101245.00
2022-10-19T13:21:54.926Z,101245.88
2022-10-19T13:24:25.268Z,101248.47
2022-10-19T13:27:04.934Z,101244.16
2022-10-19T13:29:41.589Z,101253.66
2022-10-19T13:32:34.153Z,101259.72
2022-10-19T13:35:26.734Z,101255.47
2022-10-19T13:38:09.949Z,101269.34
2022-10-19T13:40:39.707Z,101268.50
2022-10-19T13:43:21.572Z,101250.38
2022-10-19T13:46:03.082Z,101273.75
2022-10-19T13:48:57.602Z,101276.31
2022-10-19T13:51:42.089Z,101267.66
2022-10-19T13:54:18.000Z,101271.13
2022-10-19T13:56:59.336Z,101264.22
2022-10-19T14:00:00.592Z,101267.66
2022-10-19T14:02:51.040Z,101271.13
2022-10-19T14:08:45.185Z,101259.03
2022-10-19T14:11:17.683Z,101269.41
2022-10-19T14:13:45.351Z,101281.50
2022-10-19T14:16:22.310Z,101274.59
2022-10-19T14:18:56.788Z,101259.91
2022-10-19T14:21:35.914Z,101288.44
2022-10-19T14:24:03.523Z,101283.25
2022-10-19T14:26:31.435Z,101284.13
2022-10-19T14:29:00.362Z,101290.16
2022-10-19T14:31:35.637Z,101286.72
2022-10-19T14:34:04.464Z,101288.44
2022-10-19T14:36:37.994Z,101288.44
2022-10-19T14:39:06.357Z,101285.00
2022-10-19T14:41:36.649Z,101301.41
2022-10-19T14:44:30.710Z,101309.19
2022-10-19T14:47:01.469Z,101304.03
2022-10-19T14:49:28.894Z,101280.66
2022-10-19T14:52:01.630Z,101313.50
2022-10-19T14:54:44.381Z,101265.97
2022-10-19T14:57:17.340Z,101310.94
2022-10-19T14:59:48.202Z,101291.88
2022-10-19T15:02:21.514Z,101272.81
2022-10-19T15:04:50.313Z,101310.91
2022-10-19T15:07:22.232Z,101326.47
2022-10-19T15:10:01.681Z,101324.75
2022-10-19T15:12:35.781Z,101316.03
2022-10-19T15:15:12.096Z,101333.38
2022-10-19T15:17:51.958Z,101329.84
2022-10-19T15:20:27.223Z,101321.19
2022-10-19T15:22:54.849Z,101315.97
2022-10-19T15:25:34.457Z,101327.25
2022-10-19T15:28:41.668Z,101298.63
2022-10-19T15:31:18.631Z,101340.16
2022-10-19T15:33:57.793Z,101347.03
2022-10-19T15:36:26.029Z,101350.44
2022-10-19T15:39:11.350Z,101354.75
2022-10-19T15:41:46.356Z,101359.06
2022-10-19T15:44:50.580Z,101350.41
2022-10-19T15:47:19.391Z,101346.91
2022-10-19T15:49:54.325Z,101364.16
2022-10-19T15:52:26.969Z,101368.47
2022-10-19T15:54:57.082Z,101371.03
2022-10-19T15:57:39.047Z,101333.72
2022-10-19T16:00:17.120Z,101384.75
2022-10-19T16:02:44.608Z,101386.44
2022-10-19T16:05:11.997Z,101391.59
2022-10-19T16:07:41.101Z,101386.38
2022-10-19T16:10:14.697Z,101297.88
2022-10-19T16:12:42.118Z,101276.25
2022-10-19T16:15:22.627Z,101388.88
2022-10-19T16:17:56.425Z,101400.09
2022-10-19T16:20:25.650Z,101391.47
2022-10-19T16:22:53.869Z,101403.47
2022-10-19T16:25:21.232Z,101404.31
2022-10-19T16:27:48.482Z,101409.44
2022-10-19T16:30:15.761Z,101403.34
2022-10-19T16:32:43.122Z,101415.38
2022-10-19T16:35:10.461Z,101417.91
2022-10-19T16:37:37.969Z,101385.81
2022-10-19T16:40:06.018Z,101413.56
2022-10-19T16:42:35.370Z,101409.25
2022-10-19T16:45:03.140Z,101328.56
2022-10-19T16:47:30.313Z,101322.47
2022-10-19T16:50:00.300Z,101407.44
2022-10-19T16:52:34.113Z,101299.00
2022-10-19T16:55:01.756Z,101414.25
2022-10-19T16:57:29.186Z,101408.16
2022-10-19T16:59:56.774Z,101417.56
2022-10-19T17:02:24.284Z,101310.81
2022-10-19T17:04:51.622Z,101368.06
2022-10-19T17:07:19.420Z,101426.06
2022-10-19T17:09:49.736Z,101428.69
2022-10-19T17:12:19.745Z,101427.81
2022-10-19T17:14:47.220Z,101375.75
2022-10-19T17:17:14.660Z,101397.44
2022-10-19T17:19:42.164Z,101437.25
2022-10-19T17:22:09.355Z,101414.66
2022-10-19T17:24:37.873Z,101397.19
2022-10-19T17:27:05.351Z,101443.13
2022-10-19T17:29:32.772Z,101451.66
2022-10-19T17:32:00.395Z,101445.47
2022-10-19T17:34:27.921Z,101440.25
2022-10-19T17:36:55.302Z,101447.03
2022-10-19T17:39:28.888Z,101444.25
2022-10-19T17:42:02.189Z,101450.16
2022-10-19T17:44:31.084Z,101450.13
2022-10-19T17:46:58.684Z,101442.19
2022-10-19T17:49:26.042Z,101462.03
2022-10-19T17:51:56.422Z,101460.19
2022-10-19T17:54:24.336Z,101451.34
2022-10-19T17:56:51.849Z,101475.47
2022-10-19T17:59:30.142Z,101425.91
2022-10-19T18:02:04.212Z,101483.88
2022-10-19T18:04:31.608Z,101484.56
2022-10-19T18:06:58.844Z,101483.56
2022-10-19T18:09:26.301Z,101486.94
2022-10-19T18:11:53.443Z,101468.81
2022-10-19T18:14:20.740Z,101471.38
2022-10-19T18:16:48.308Z,101496.59
2022-10-19T18:19:16.891Z,101504.44
2022-10-19T18:21:46.191Z,101495.69
2022-10-19T18:24:20.441Z,101476.50
2022-10-19T18:26:50.235Z,101498.88
2022-10-19T18:29:21.281Z,101481.34
2022-10-19T18:31:51.898Z,101507.34
2022-10-19T18:34:22.471Z,101510.78
2022-10-19T18:36:50.566Z,101514.13
2022-10-19T18:39:18.343Z,101515.75
2022-10-19T18:41:45.597Z,101516.41
2022-10-19T18:44:15.423Z,101499.81
2022-10-19T18:46:42.673Z,101478.84
2022-10-19T18:49:11.620Z,101486.63
2022-10-19T18:51:39.239Z,101414.25
2022-10-19T18:54:06.543Z,101518.38
2022-10-19T18:56:36.052Z,101539.91
2022-10-19T18:59:04.920Z,101484.94
2022-10-19T19:01:32.321Z,101534.59
2022-10-19T19:04:07.324Z,101527.69
2022-10-19T19:06:36.521Z,101532.22
2022-10-19T19:09:07.603Z,101452.31
2022-10-19T19:11:37.749Z,101537.66
2022-10-19T19:14:12.328Z,101542.75
2022-10-19T19:16:40.773Z,101541.91
2022-10-19T19:19:09.045Z,101541.00
2022-10-19T19:21:36.901Z,101546.16
2022-10-19T19:24:07.020Z,101547.00
2022-10-19T19:26:38.500Z,101544.53
2022-10-19T19:29:05.962Z,101496.78
2022-10-19T19:31:33.756Z,101538.56
2022-10-19T19:34:01.920Z,101545.44
2022-10-19T19:36:29.538Z,101450.44
2022-10-19T19:38:57.364Z,101517.28
2022-10-19T19:41:24.847Z,101543.13
2022-10-19T19:43:51.967Z,101559.34
2022-10-19T19:46:20.096Z,101564.28
2022-10-19T19:48:48.409Z,101559.28
2022-10-19T19:51:20.951Z,101552.44
2022-10-19T19:53:48.750Z,101552.44
2022-10-19T19:56:16.811Z,101539.56
2022-10-19T19:58:45.152Z,101559.66
2022-10-19T20:01:18.364Z,101523.22
2022-10-19T20:03:46.621Z,101562.91
2022-10-19T20:06:17.884Z,101564.28
2022-10-19T20:08:47.092Z,101559.88
2022-10-19T20:11:16.460Z,101560.59
2022-10-19T20:13:45.233Z,101559.59
2022-10-19T20:16:18.466Z,101561.94
2022-10-19T20:18:47.809Z,101570.25
2022-10-19T20:21:16.073Z,101537.19
2022-10-19T20:23:47.789Z,101507.38
2022-10-19T20:26:16.935Z,101571.63
2022-10-19T20:28:44.521Z,101551.59
2022-10-19T20:31:13.414Z,101567.75
2022-10-19T20:33:41.874Z,101576.31
2022-10-19T20:36:16.199Z,101583.72
2022-10-19T20:38:52.719Z,101577.50
2022-10-19T20:41:23.831Z,101576.63
2022-10-19T20:43:51.573Z,101584.38
2022-10-19T20:46:22.390Z,101581.59
2022-10-19T20:48:50.583Z,101566.66
2022-10-19T20:51:25.913Z,101582.16
2022-10-19T20:53:57.310Z,101578.66
2022-10-19T20:56:28.096Z,101582.31
2022-10-19T20:59:00.630Z,101582.38
2022-10-19T21:01:30.433Z,101592.75
2022-10-19T21:04:01.112Z,101578.03
2022-10-19T21:06:30.761Z,101588.31
2022-10-19T21:08:59.212Z,101575.09
2022-10-19T21:11:28.805Z,101575.06
2022-10-19T21:13:58.348Z,101590.59
2022-10-19T21:16:28.155Z,101548.47
2022-10-19T21:18:55.629Z,101601.25
2022-10-19T21:21:25.483Z,101596.91
2022-10-19T21:23:56.970Z,101554.25
2022-10-19T21:26:31.436Z,101603.84
2022-10-19T21:28:59.072Z,101589.91
2022-10-19T21:31:27.560Z,101581.03
2022-10-19T21:33:55.276Z,101589.56
2022-10-19T21:36:25.661Z,101577.09
2022-10-19T21:38:52.796Z,101592.59
2022-10-19T21:41:25.357Z,101588.41
2022-10-19T21:43:55.033Z,101588.34
2022-10-19T21:46:23.863Z,101594.25
2022-10-19T21:48:51.760Z,101558.75
2022-10-19T21:51:49.038Z,101593.63
2022-10-19T21:54:19.395Z,101599.84
2022-10-19T21:56:47.236Z,101608.28
2022-10-19T21:59:15.269Z,101589.19
2022-10-19T22:01:42.774Z,101588.19
2022-10-19T22:04:13.880Z,101598.78
2022-10-19T22:06:42.279Z,101562.16
2022-10-19T22:09:12.164Z,101590.75
2022-10-19T22:11:39.466Z,101554.25
2022-10-19T22:14:06.750Z,101590.22
2022-10-19T22:16:37.150Z,101594.63
2022-10-19T22:19:05.599Z,101566.53
2022-10-19T22:21:35.119Z,101591.78
2022-10-19T22:24:05.654Z,101597.53
2022-10-19T22:26:38.851Z,101586.06
2022-10-19T22:29:07.347Z,101566.19
2022-10-19T22:31:36.146Z,101594.97
2022-10-19T22:34:09.990Z,101589.81
2022-10-19T22:36:37.367Z,101542.56
2022-10-19T22:39:05.087Z,101539.91
2022-10-19T22:41:32.183Z,101576.13
2022-10-19T22:43:59.421Z,101582.50
2022-10-19T22:46:26.769Z,101588.81
2022-10-19T22:48:53.974Z,101554.53
2022-10-19T22:51:21.353Z,101580.22
2022-10-19T22:53:48.533Z,101613.06
2022-10-19T22:56:15.951Z,101602.50
2022-10-19T22:58:43.231Z,101603.97
2022-10-19T23:01:14.011Z,101606.25
2022-10-19T23:03:42.269Z,101589.41
2022-10-19T23:06:12.097Z,101622.25
2022-10-19T23:08:39.948Z,101568.19
2022-10-19T23:11:07.350Z,101612.50
2022-10-19T23:13:34.560Z,101588.72
2022-10-19T23:16:01.991Z,101560.72
2022-10-19T23:18:33.953Z,101618.38
2022-10-19T23:21:03.349Z,101628.38
2022-10-19T23:23:31.742Z,101619.63
2022-10-19T23:26:05.842Z,101617.78
2022-10-19T23:28:35.369Z,101622.91
2022-10-19T23:31:08.071Z,101633.84
2022-10-19T23:33:35.905Z,101635.66
2022-10-19T23:36:15.191Z,101638.13
2022-10-19T23:38:43.664Z,101633.69
2022-10-19T23:41:11.704Z,101643.81
2022-10-19T23:43:39.315Z,101620.66
2022-10-19T23:46:06.909Z,101630.19
2022-10-19T23:48:34.901Z,101621.34
2022-10-19T23:51:08.020Z,101650.38
2022-10-19T23:53:40.775Z,101639.03
2022-10-19T23:56:15.262Z,101657.25
2022-10-19T23:58:43.059Z,101651.91
